createdAt,value
2023-09-23T00:00:16.672Z,49.38
2023-09-23T00:01:16.727Z,48.16
2023-09-23T00:02:16.690Z,49.20
2023-09-23T00:03:16.735Z,48.65
2023-09-23T00:04:16.765Z,47.22
2023-09-23T00:05:16.768Z,47.26
2023-09-23T00:06:16.641Z,48.09
2023-09-23T00:07:16.618Z,48.60
2023-09-23T00:08:16.677Z,47.55
2023-09-23T00:09:16.625Z,47.52
2023-09-23T00:10:16.582Z,47.96
2023-09-23T00:11:16.675Z,49.27
2023-09-23T00:12:16.592Z,48.95
2023-09-23T00:13:16.586Z,47.62
2023-09-23T00:14:16.553Z,47.28
2023-09-23T00:15:16.565Z,50.07
2023-09-23T00:16:17.061Z,49.89
2023-09-23T00:17:16.646Z,49.79
2023-09-23T00:18:16.521Z,48.12
2023-09-23T00:19:16.543Z,47.73
2023-09-23T00:20:16.566Z,47.61
2023-09-23T00:21:16.501Z,47.26
2023-09-23T00:22:16.617Z,47.71
2023-09-23T00:23:16.587Z,48.77
2023-09-23T00:24:16.469Z,47.79
2023-09-23T00:25:16.449Z,47.42
2023-09-23T00:26:16.510Z,49.73
2023-09-23T00:27:16.446Z,50.14
2023-09-23T00:28:16.501Z,48.12
2023-09-23T00:29:16.466Z,47.59
2023-09-23T00:30:16.454Z,47.81
2023-09-23T00:31:16.440Z,52.28
2023-09-23T00:32:16.483Z,48.47
2023-09-23T00:33:16.402Z,49.68
2023-09-23T00:34:16.436Z,48.04
2023-09-23T00:35:16.427Z,49.49
2023-09-23T00:36:16.464Z,48.37
2023-09-23T00:37:16.355Z,49.65
2023-09-23T00:38:16.420Z,47.96
2023-09-23T00:39:16.363Z,47.28
2023-09-23T00:40:16.368Z,47.57
2023-09-23T00:41:16.386Z,49.98
2023-09-23T00:42:16.326Z,50.02
2023-09-23T00:43:16.338Z,48.28
2023-09-23T00:44:16.326Z,47.73
2023-09-23T00:45:16.302Z,49.13
2023-09-23T00:46:16.338Z,47.46
2023-09-23T00:47:16.301Z,47.21
2023-09-23T00:48:16.272Z,47.85
2023-09-23T00:49:16.309Z,47.52
2023-09-23T00:50:16.315Z,47.35
2023-09-23T00:51:16.256Z,48.00
2023-09-23T00:52:16.291Z,47.91
2023-09-23T00:53:16.328Z,47.90
2023-09-23T00:54:16.230Z,47.60
2023-09-23T00:55:16.223Z,48.17
2023-09-23T00:56:16.304Z,47.29
2023-09-23T00:57:16.205Z,49.05
2023-09-23T00:58:16.187Z,49.40
2023-09-23T00:59:16.252Z,52.67
2023-09-23T01:00:16.289Z,49.12
2023-09-23T01:01:16.217Z,48.91
2023-09-23T01:02:16.221Z,49.12
2023-09-23T01:03:16.186Z,47.39
2023-09-23T01:04:16.193Z,49.93
2023-09-23T01:05:16.170Z,48.27
2023-09-23T01:06:16.229Z,49.17
2023-09-23T01:07:16.117Z,47.86
2023-09-23T01:08:16.148Z,48.19
2023-09-23T01:09:16.119Z,49.36
2023-09-23T01:10:16.115Z,47.43
2023-09-23T01:11:16.169Z,47.53
2023-09-23T01:12:16.112Z,47.35
2023-09-23T01:13:16.071Z,48.92
2023-09-23T01:14:16.117Z,50.31
2023-09-23T01:15:16.150Z,48.51
2023-09-23T01:16:16.070Z,49.08
2023-09-23T01:17:16.112Z,47.25
2023-09-23T01:18:16.044Z,47.50
2023-09-23T01:19:16.033Z,47.99
2023-09-23T01:20:16.061Z,48.64
2023-09-23T01:21:16.017Z,49.49
2023-09-23T01:22:16.027Z,47.37
2023-09-23T01:23:16.077Z,48.39
2023-09-23T01:24:16.014Z,49.19
2023-09-23T01:25:15.958Z,49.01
2023-09-23T01:26:17.040Z,48.56
2023-09-23T01:27:15.997Z,48.88
2023-09-23T01:28:15.986Z,50.97
2023-09-23T01:29:15.968Z,48.07
2023-09-23T01:30:15.963Z,50.21
2023-09-23T01:31:16.042Z,49.07
2023-09-23T01:32:15.996Z,48.69
2023-09-23T01:33:16.030Z,48.73
2023-09-23T01:34:15.926Z,48.25
2023-09-23T01:35:15.950Z,47.80
2023-09-23T01:36:15.902Z,52.00
2023-09-23T01:37:15.878Z,51.46
2023-09-23T01:38:15.891Z,49.64
2023-09-23T01:39:15.916Z,48.53
2023-09-23T01:40:15.853Z,50.50
2023-09-23T01:41:15.869Z,48.29
2023-09-23T01:42:15.838Z,47.58
2023-09-23T01:43:15.824Z,47.75
2023-09-23T01:44:15.914Z,48.27
2023-09-23T01:45:15.830Z,48.96
2023-09-23T01:46:15.822Z,48.61
2023-09-23T01:47:15.871Z,48.36
2023-09-23T01:48:15.855Z,49.91
2023-09-23T01:49:15.804Z,49.67
2023-09-23T01:50:15.839Z,49.88
2023-09-23T01:51:15.781Z,47.32
2023-09-23T01:52:15.761Z,47.44
2023-09-23T01:53:15.823Z,47.81
2023-09-23T01:54:15.758Z,47.84
2023-09-23T01:55:15.791Z,47.87
2023-09-23T01:56:15.792Z,51.73
2023-09-23T01:57:15.711Z,49.17
2023-09-23T01:58:15.829Z,48.85
2023-09-23T01:59:15.708Z,48.99
2023-09-23T02:00:15.701Z,48.66
2023-09-23T02:01:15.805Z,49.41
2023-09-23T02:02:15.795Z,48.93
2023-09-23T02:03:15.747Z,52.45
2023-09-23T02:04:15.690Z,48.55
2023-09-23T02:05:15.674Z,47.45
2023-09-23T02:06:15.658Z,48.21
2023-09-23T02:07:15.684Z,50.06
2023-09-23T02:08:15.737Z,49.17
2023-09-23T02:09:15.638Z,50.04
2023-09-23T02:10:15.622Z,48.33
2023-09-23T02:11:15.664Z,48.75
2023-09-23T02:12:15.619Z,50.28
2023-09-23T02:13:15.683Z,48.59
2023-09-23T02:14:15.674Z,51.44
2023-09-23T02:15:15.602Z,50.77
2023-09-23T02:16:15.626Z,49.25
2023-09-23T02:17:15.739Z,50.13
2023-09-23T02:18:15.742Z,48.98
2023-09-23T02:19:15.561Z,51.11
2023-09-23T02:20:15.579Z,48.17
2023-09-23T02:21:15.540Z,49.17
2023-09-23T02:22:15.529Z,48.52
2023-09-23T02:23:16.365Z,48.47
2023-09-23T02:24:16.504Z,48.38
2023-09-23T02:25:15.534Z,50.96
2023-09-23T02:26:15.546Z,49.64
2023-09-23T02:27:15.565Z,49.47
2023-09-23T02:28:15.489Z,48.57
2023-09-23T02:29:15.522Z,50.36
2023-09-23T02:30:15.595Z,51.42
2023-09-23T02:31:15.483Z,49.44
2023-09-23T02:32:15.486Z,48.86
2023-09-23T02:33:15.482Z,49.51
2023-09-23T02:34:15.437Z,51.48
2023-09-23T02:35:15.470Z,52.53
2023-09-23T02:36:15.465Z,51.02
2023-09-23T02:37:15.542Z,49.78
2023-09-23T02:38:15.598Z,49.71
2023-09-23T02:39:15.405Z,51.06
2023-09-23T02:40:15.692Z,50.67
2023-09-23T02:41:15.497Z,51.02
2023-09-23T02:42:15.370Z,49.98
2023-09-23T02:43:15.379Z,49.35
2023-09-23T02:44:15.388Z,48.86
2023-09-23T02:45:15.460Z,49.29
2023-09-23T02:46:15.365Z,51.10
2023-09-23T02:47:15.400Z,50.71
2023-09-23T02:48:15.357Z,49.12
2023-09-23T02:49:15.320Z,48.09
2023-09-23T02:50:15.989Z,49.97
2023-09-23T02:51:15.317Z,49.43
2023-09-23T02:52:15.293Z,51.76
2023-09-23T02:53:15.362Z,49.83
2023-09-23T02:54:15.273Z,48.59
2023-09-23T02:55:15.303Z,51.25
2023-09-23T02:56:15.315Z,50.13
2023-09-23T02:57:15.254Z,50.44
2023-09-23T02:58:15.260Z,50.24
2023-09-23T02:59:15.359Z,53.78
2023-09-23T03:00:15.248Z,52.35
2023-09-23T03:01:15.231Z,50.72
2023-09-23T03:02:15.302Z,50.21
2023-09-23T03:03:15.312Z,49.68
2023-09-23T03:04:15.211Z,48.39
2023-09-23T03:05:15.265Z,49.44
2023-09-23T03:06:15.217Z,49.05
2023-09-23T03:07:15.200Z,49.58
2023-09-23T03:08:15.450Z,48.43
2023-09-23T03:09:15.177Z,50.73
2023-09-23T03:10:15.179Z,50.60
2023-09-23T03:11:15.177Z,49.05
2023-09-23T03:12:15.162Z,48.80
2023-09-23T03:13:15.140Z,49.76
2023-09-23T03:14:15.194Z,51.28
2023-09-23T03:15:15.108Z,47.96
2023-09-23T03:16:15.137Z,48.47
2023-09-23T03:17:15.121Z,47.77
2023-09-23T03:18:15.177Z,50.16
2023-09-23T03:19:15.132Z,51.26
2023-09-23T03:20:15.119Z,49.13
2023-09-23T03:21:15.054Z,50.00
2023-09-23T03:22:15.062Z,49.39
2023-09-23T03:23:15.073Z,48.63
2023-09-23T03:24:15.090Z,48.80
2023-09-23T03:25:15.028Z,48.59
2023-09-23T03:26:15.079Z,50.39
2023-09-23T03:27:15.032Z,48.55
2023-09-23T03:28:15.028Z,50.41
2023-09-23T03:29:15.054Z,50.34
2023-09-23T03:30:15.035Z,48.67
2023-09-23T03:31:14.976Z,47.99
2023-09-23T03:32:15.043Z,50.81
2023-09-23T03:33:15.044Z,51.05
2023-09-23T03:34:14.963Z,51.01
2023-09-23T03:35:15.043Z,49.32
2023-09-23T03:36:14.979Z,48.44
2023-09-23T03:37:14.929Z,49.50
2023-09-23T03:38:14.971Z,48.76
2023-09-23T03:39:14.979Z,50.17
2023-09-23T03:40:14.945Z,50.64
2023-09-23T03:41:14.996Z,49.84
2023-09-23T03:42:14.962Z,48.65
2023-09-23T03:43:14.907Z,49.76
2023-09-23T03:44:14.937Z,48.17
2023-09-23T03:45:14.867Z,49.21
2023-09-23T03:46:14.883Z,49.19
2023-09-23T03:47:14.902Z,48.49
2023-09-23T03:48:15.847Z,47.59
2023-09-23T03:49:14.848Z,51.63
2023-09-23T03:50:14.907Z,48.82
2023-09-23T03:51:14.835Z,49.33
2023-09-23T03:52:14.983Z,48.46
2023-09-23T03:53:14.866Z,47.97
2023-09-23T03:54:14.822Z,48.86
2023-09-23T03:55:15.640Z,52.45
2023-09-23T03:56:16.093Z,50.42
2023-09-23T03:57:14.787Z,49.70
2023-09-23T03:58:15.201Z,49.09
2023-09-23T03:59:14.857Z,48.87
2023-09-23T04:00:14.775Z,48.99
2023-09-23T04:01:15.032Z,49.57
2023-09-23T04:02:14.793Z,49.08
2023-09-23T04:03:14.870Z,48.50
2023-09-23T04:04:14.744Z,48.62
2023-09-23T04:05:14.766Z,48.45
2023-09-23T04:06:14.757Z,48.54
2023-09-23T04:07:14.716Z,49.22
2023-09-23T04:08:14.754Z,47.94
2023-09-23T04:09:14.688Z,49.15
2023-09-23T04:10:14.724Z,50.28
2023-09-23T04:11:14.721Z,50.78
2023-09-23T04:12:14.678Z,51.31
2023-09-23T04:13:14.681Z,49.04
2023-09-23T04:14:14.676Z,50.47
2023-09-23T04:15:14.629Z,49.87
2023-09-23T04:16:14.651Z,47.99
2023-09-23T04:17:14.665Z,51.34
2023-09-23T04:18:14.745Z,49.77
2023-09-23T04:19:14.624Z,50.33
2023-09-23T04:20:14.665Z,48.71
2023-09-23T04:21:14.578Z,48.33
2023-09-23T04:22:14.602Z,50.03
2023-09-23T04:23:14.661Z,50.83
2023-09-23T04:24:14.592Z,48.70
2023-09-23T04:25:14.574Z,50.28
2023-09-23T04:26:14.611Z,48.23
2023-09-23T04:27:14.566Z,49.73
2023-09-23T04:28:14.536Z,48.52
2023-09-23T04:29:14.586Z,48.98
2023-09-23T04:30:14.525Z,52.39
2023-09-23T04:31:14.531Z,50.22
2023-09-23T04:32:14.573Z,50.02
2023-09-23T04:33:14.727Z,51.32
2023-09-23T04:34:14.502Z,51.03
2023-09-23T04:35:14.674Z,48.96
2023-09-23T04:36:14.489Z,49.39
2023-09-23T04:37:14.481Z,50.68
2023-09-23T04:38:14.523Z,48.84
2023-09-23T04:39:14.501Z,48.02
2023-09-23T04:40:14.592Z,49.38
2023-09-23T04:41:14.494Z,50.28
2023-09-23T04:42:14.436Z,51.96
2023-09-23T04:43:14.431Z,51.47
2023-09-23T04:44:14.495Z,52.20
2023-09-23T04:45:14.439Z,51.00
2023-09-23T04:46:14.488Z,55.69
2023-09-23T04:47:14.409Z,51.75
2023-09-23T04:48:14.409Z,52.76
2023-09-23T04:49:14.366Z,52.63
2023-09-23T04:50:14.388Z,54.41
2023-09-23T04:51:14.411Z,53.83
2023-09-23T04:52:14.418Z,52.72
2023-09-23T04:53:14.483Z,55.33
2023-09-23T04:54:14.348Z,55.63
2023-09-23T04:55:14.332Z,53.63
2023-09-23T04:56:14.433Z,52.79
2023-09-23T04:57:14.341Z,54.49
2023-09-23T04:58:14.317Z,51.47
2023-09-23T04:59:14.359Z,51.96
2023-09-23T05:00:14.302Z,52.54
2023-09-23T05:01:14.314Z,52.74
2023-09-23T05:02:14.397Z,52.07
2023-09-23T05:03:14.313Z,50.88
2023-09-23T05:04:14.368Z,51.08
2023-09-23T05:05:14.380Z,54.18
2023-09-23T05:06:14.245Z,50.59
2023-09-23T05:07:14.293Z,54.21
2023-09-23T05:08:14.266Z,53.71
2023-09-23T05:09:14.226Z,52.99
2023-09-23T05:10:14.271Z,53.07
2023-09-23T05:11:14.248Z,53.09
2023-09-23T05:12:14.238Z,54.74
2023-09-23T05:13:14.210Z,54.17
2023-09-23T05:14:14.208Z,53.84
2023-09-23T05:15:14.909Z,50.73
2023-09-23T05:16:14.222Z,52.13
2023-09-23T05:17:14.198Z,55.04
2023-09-23T05:18:14.255Z,52.50
2023-09-23T05:19:14.257Z,49.71
2023-09-23T05:20:14.214Z,51.66
2023-09-23T05:21:14.170Z,53.09
2023-09-23T05:22:14.145Z,52.50
2023-09-23T05:23:14.192Z,50.74
2023-09-23T05:24:14.246Z,52.77
2023-09-23T05:25:14.141Z,53.68
2023-09-23T05:26:14.130Z,51.25
2023-09-23T05:27:14.102Z,52.37
2023-09-23T05:28:14.127Z,52.71
2023-09-23T05:29:14.244Z,52.26
2023-09-23T05:30:14.115Z,53.06
2023-09-23T05:31:14.102Z,54.15
2023-09-23T05:32:14.166Z,52.17
2023-09-23T05:33:14.101Z,54.06
2023-09-23T05:34:14.038Z,51.36
2023-09-23T05:35:14.131Z,51.02
2023-09-23T05:36:14.055Z,54.57
2023-09-23T05:37:14.008Z,52.34
2023-09-23T05:38:14.065Z,50.85
2023-09-23T05:39:14.010Z,51.62
2023-09-23T05:40:13.990Z,53.54
2023-09-23T05:41:14.122Z,52.17
2023-09-23T05:42:13.958Z,51.84
2023-09-23T05:43:13.973Z,53.83
2023-09-23T05:44:14.006Z,52.11
2023-09-23T05:45:13.955Z,52.85
2023-09-23T05:46:14.005Z,52.98
2023-09-23T05:47:14.005Z,52.67
2023-09-23T05:48:14.986Z,51.22
2023-09-23T05:49:13.906Z,50.89
2023-09-23T05:50:13.933Z,51.80
2023-09-23T05:51:13.956Z,51.57
2023-09-23T05:52:13.891Z,51.79
2023-09-23T05:53:13.926Z,50.31
2023-09-23T05:54:13.882Z,51.16
2023-09-23T05:55:13.876Z,52.08
2023-09-23T05:56:13.881Z,50.51
2023-09-23T05:57:13.836Z,52.38
2023-09-23T05:58:13.866Z,53.78
2023-09-23T05:59:13.874Z,51.63
2023-09-23T06:00:13.845Z,53.11
2023-09-23T06:01:13.904Z,51.72
2023-09-23T06:02:13.871Z,58.56
2023-09-23T06:03:13.996Z,57.94
2023-09-23T06:04:13.841Z,57.30
2023-09-23T06:05:13.859Z,53.74
2023-09-23T06:06:14.815Z,53.87
2023-09-23T06:07:13.758Z,52.85
2023-09-23T06:08:13.868Z,53.05
2023-09-23T06:09:13.796Z,50.18
2023-09-23T06:10:13.780Z,50.52
2023-09-23T06:11:13.798Z,54.86
2023-09-23T06:12:13.740Z,53.19
2023-09-23T06:13:13.829Z,53.03
2023-09-23T06:14:13.869Z,54.37
2023-09-23T06:15:13.865Z,54.84
2023-09-23T06:16:13.698Z,53.15
2023-09-23T06:17:13.774Z,52.43
2023-09-23T06:18:13.730Z,51.32
2023-09-23T06:19:13.669Z,54.44
2023-09-23T06:20:13.893Z,53.02
2023-09-23T06:21:13.670Z,52.68
2023-09-23T06:22:13.677Z,55.03
2023-09-23T06:23:13.661Z,51.22
2023-09-23T06:24:13.631Z,51.15
2023-09-23T06:25:13.668Z,52.74
2023-09-23T06:26:13.669Z,54.70
2023-09-23T06:27:13.599Z,63.00
2023-09-23T06:28:13.647Z,55.83
2023-09-23T06:29:13.598Z,53.77
2023-09-23T06:30:13.595Z,52.33
2023-09-23T06:31:13.668Z,53.55
2023-09-23T06:32:13.728Z,52.01
2023-09-23T06:33:13.665Z,51.06
2023-09-23T06:34:13.733Z,52.16
2023-09-23T06:35:13.575Z,53.35
2023-09-23T06:36:13.545Z,53.47
2023-09-23T06:37:13.577Z,59.22
2023-09-23T06:38:13.517Z,57.42
2023-09-23T06:39:13.518Z,53.18
2023-09-23T06:40:13.522Z,54.39
2023-09-23T06:41:14.083Z,53.58
2023-09-23T06:42:13.883Z,53.14
2023-09-23T06:43:13.485Z,53.61
2023-09-23T06:44:14.496Z,53.46
2023-09-23T06:45:13.518Z,52.95
2023-09-23T06:46:13.478Z,53.01
2023-09-23T06:47:13.529Z,53.41
2023-09-23T06:48:13.464Z,52.08
2023-09-23T06:49:13.467Z,54.03
2023-09-23T06:50:13.478Z,52.88
2023-09-23T06:51:13.469Z,54.81
2023-09-23T06:52:13.420Z,53.38
2023-09-23T06:53:13.444Z,53.11
2023-09-23T06:54:13.381Z,52.92
2023-09-23T06:55:13.389Z,54.13
2023-09-23T06:56:13.398Z,54.08
2023-09-23T06:57:13.401Z,51.40
2023-09-23T06:58:13.350Z,53.60
2023-09-23T06:59:13.382Z,52.10
2023-09-23T07:00:13.345Z,54.29
2023-09-23T07:01:13.353Z,54.02
2023-09-23T07:02:13.390Z,58.88
2023-09-23T07:03:13.424Z,56.82
2023-09-23T07:04:13.459Z,55.70
2023-09-23T07:05:13.423Z,55.52
2023-09-23T07:06:13.338Z,54.79
2023-09-23T07:07:13.299Z,53.04
2023-09-23T07:08:13.311Z,54.93
2023-09-23T07:09:13.292Z,52.64
2023-09-23T07:10:13.314Z,53.68
2023-09-23T07:11:13.291Z,52.15
2023-09-23T07:12:13.251Z,52.45
2023-09-23T07:13:13.557Z,52.28
2023-09-23T07:14:14.278Z,53.60
2023-09-23T07:15:13.275Z,53.62
2023-09-23T07:16:13.244Z,52.94
2023-09-23T07:17:13.224Z,55.98
2023-09-23T07:18:13.227Z,58.70
2023-09-23T07:19:14.226Z,55.14
2023-09-23T07:20:13.211Z,51.30
2023-09-23T07:21:13.236Z,52.33
2023-09-23T07:22:13.183Z,53.47
2023-09-23T07:23:13.210Z,53.20
2023-09-23T07:24:14.026Z,54.42
2023-09-23T07:25:14.157Z,56.68
2023-09-23T07:26:13.223Z,56.51
2023-09-23T07:27:13.189Z,54.35
2023-09-23T07:28:13.155Z,56.20
2023-09-23T07:29:13.173Z,56.95
2023-09-23T07:30:13.140Z,60.39
2023-09-23T07:31:13.160Z,59.23
2023-09-23T07:32:13.132Z,56.85
2023-09-23T07:33:13.178Z,55.00
2023-09-23T07:34:13.137Z,54.38
2023-09-23T07:35:13.115Z,55.08
2023-09-23T07:36:13.059Z,55.09
2023-09-23T07:37:13.103Z,55.75
2023-09-23T07:38:13.083Z,57.49
2023-09-23T07:39:13.049Z,56.92
2023-09-23T07:40:13.029Z,56.77
2023-09-23T07:41:13.045Z,55.78
2023-09-23T07:42:13.030Z,56.13
2023-09-23T07:43:13.037Z,55.75
2023-09-23T07:44:13.146Z,56.03
2023-09-23T07:45:13.031Z,54.87
2023-09-23T07:46:13.048Z,57.20
2023-09-23T07:47:12.999Z,56.11
2023-09-23T07:48:13.234Z,54.51
2023-09-23T07:49:12.957Z,54.88
2023-09-23T07:50:12.980Z,53.89
2023-09-23T07:51:12.946Z,57.81
2023-09-23T07:52:12.971Z,56.52
2023-09-23T07:53:13.050Z,55.30
2023-09-23T07:54:12.920Z,59.89
2023-09-23T07:55:12.959Z,55.21
2023-09-23T07:56:12.930Z,54.26
2023-09-23T07:57:12.929Z,55.09
2023-09-23T07:58:12.910Z,54.15
2023-09-23T07:59:12.912Z,53.74
2023-09-23T08:00:12.866Z,55.14
2023-09-23T08:01:12.873Z,53.66
2023-09-23T08:02:12.938Z,56.24
2023-09-23T08:03:12.889Z,56.18
2023-09-23T08:04:12.922Z,55.99
2023-09-23T08:05:12.946Z,55.28
2023-09-23T08:06:12.866Z,54.99
2023-09-23T08:07:12.839Z,53.14
2023-09-23T08:08:12.871Z,53.68
2023-09-23T08:09:12.840Z,53.65
2023-09-23T08:10:12.783Z,54.91
2023-09-23T08:11:12.796Z,55.61
2023-09-23T08:12:12.777Z,53.14
2023-09-23T08:13:12.780Z,51.83
2023-09-23T08:14:12.820Z,50.85
2023-09-23T08:15:12.801Z,54.98
2023-09-23T08:16:12.771Z,54.09
2023-09-23T08:17:12.748Z,52.36
2023-09-23T08:18:12.798Z,54.13
2023-09-23T08:19:12.781Z,53.23
2023-09-23T08:20:12.778Z,54.90
2023-09-23T08:21:12.707Z,54.13
2023-09-23T08:22:12.715Z,56.34
2023-09-23T08:23:12.764Z,54.34
2023-09-23T08:24:12.694Z,53.06
2023-09-23T08:25:12.730Z,53.01
2023-09-23T08:26:12.721Z,54.00
2023-09-23T08:27:12.698Z,52.25
2023-09-23T08:28:12.671Z,55.31
2023-09-23T08:29:12.689Z,54.95
2023-09-23T08:30:12.664Z,59.13
2023-09-23T08:31:13.714Z,57.21
2023-09-23T08:32:12.788Z,51.19
2023-09-23T08:33:12.715Z,53.36
2023-09-23T08:34:12.755Z,52.42
2023-09-23T08:35:12.767Z,53.53
2023-09-23T08:36:12.626Z,49.39
2023-09-23T08:37:12.624Z,52.56
2023-09-23T08:38:12.617Z,51.33
2023-09-23T08:39:12.605Z,48.82
2023-09-23T08:40:12.693Z,55.42
2023-09-23T08:41:12.635Z,52.61
2023-09-23T08:42:12.543Z,52.03
2023-09-23T08:43:12.603Z,54.00
2023-09-23T08:44:12.566Z,53.73
2023-09-23T08:45:12.564Z,53.81
2023-09-23T08:46:12.634Z,53.08
2023-09-23T08:47:12.603Z,55.08
2023-09-23T08:48:12.567Z,58.78
2023-09-23T08:49:12.496Z,53.89
2023-09-23T08:50:12.691Z,60.94
2023-09-23T08:51:12.473Z,62.72
2023-09-23T08:52:12.497Z,60.89
2023-09-23T08:53:12.503Z,54.81
2023-09-23T08:54:12.467Z,57.78
2023-09-23T08:55:12.458Z,60.98
2023-09-23T08:56:12.534Z,56.14
2023-09-23T08:57:12.470Z,53.47
2023-09-23T08:58:12.431Z,56.67
2023-09-23T08:59:12.545Z,53.10
2023-09-23T09:00:12.434Z,54.17
2023-09-23T09:01:12.487Z,57.60
2023-09-23T09:02:12.484Z,60.47
2023-09-23T09:03:12.474Z,58.57
2023-09-23T09:04:12.375Z,60.02
2023-09-23T09:05:12.494Z,60.61
2023-09-23T09:06:12.501Z,57.89
2023-09-23T09:07:12.391Z,54.48
2023-09-23T09:08:12.409Z,54.86
2023-09-23T09:09:12.436Z,58.96
2023-09-23T09:10:12.422Z,56.53
2023-09-23T09:11:12.426Z,61.76
2023-09-23T09:12:12.462Z,56.27
2023-09-23T09:13:12.405Z,56.63
2023-09-23T09:14:12.392Z,58.71
2023-09-23T09:15:12.329Z,56.75
2023-09-23T09:16:12.480Z,59.75
2023-09-23T09:17:12.369Z,54.86
2023-09-23T09:18:12.370Z,56.28
2023-09-23T09:19:12.270Z,59.68
2023-09-23T09:20:12.407Z,61.07
2023-09-23T09:21:12.279Z,55.68
2023-09-23T09:22:12.292Z,55.31
2023-09-23T09:23:12.309Z,58.08
2023-09-23T09:24:12.270Z,54.11
2023-09-23T09:25:12.295Z,56.11
2023-09-23T09:26:12.382Z,54.82
2023-09-23T09:27:12.228Z,56.06
2023-09-23T09:28:12.288Z,51.29
2023-09-23T09:29:12.326Z,51.18
2023-09-23T09:30:14.088Z,54.65
2023-09-23T09:31:13.233Z,52.24
2023-09-23T09:32:12.345Z,53.18
2023-09-23T09:33:12.246Z,54.32
2023-09-23T09:34:12.209Z,51.39
2023-09-23T09:35:12.302Z,54.34
2023-09-23T09:36:12.183Z,55.14
2023-09-23T09:49:05.777Z,56.82
2023-09-23T09:50:08.369Z,56.04
2023-09-23T09:51:07.370Z,53.66
2023-09-23T09:52:06.689Z,54.08
2023-09-23T09:53:09.412Z,55.36
2023-09-23T09:54:04.686Z,52.25
2023-09-23T09:55:06.381Z,50.92
2023-09-23T09:56:05.890Z,52.66
2023-09-23T09:57:04.827Z,49.02
2023-09-23T09:58:04.266Z,56.34
2023-09-23T09:59:04.294Z,53.49
2023-09-23T10:00:04.257Z,53.07
2023-09-23T10:01:04.269Z,51.73
2023-09-23T10:02:04.310Z,53.57
2023-09-23T10:03:04.289Z,54.27
2023-09-23T10:04:04.234Z,52.86
2023-09-23T10:05:04.256Z,53.15
2023-09-23T10:06:04.210Z,53.79
2023-09-23T10:07:04.210Z,54.28
2023-09-23T10:08:04.219Z,50.92
2023-09-23T10:09:04.170Z,53.96
2023-09-23T10:10:04.289Z,53.33
2023-09-23T10:11:04.312Z,53.28
2023-09-23T10:12:04.178Z,51.45
2023-09-23T10:13:04.185Z,51.51
2023-09-23T10:14:04.166Z,53.93
2023-09-23T10:15:04.175Z,53.81
2023-09-23T10:16:04.214Z,55.02
2023-09-23T10:17:04.196Z,55.33
2023-09-23T10:18:04.243Z,52.15
2023-09-23T10:19:04.151Z,52.71
2023-09-23T10:20:04.165Z,54.35
2023-09-23T10:21:04.289Z,54.31
2023-09-23T10:22:04.095Z,51.60
2023-09-23T10:23:04.194Z,51.75
2023-09-23T10:24:04.086Z,52.32
2023-09-23T10:25:04.143Z,52.37
2023-09-23T10:26:04.122Z,52.83
2023-09-23T10:27:04.046Z,58.41
2023-09-23T10:28:04.066Z,54.17
2023-09-23T10:29:04.145Z,54.23
2023-09-23T10:30:04.079Z,54.61
2023-09-23T10:31:04.108Z,53.48
2023-09-23T10:32:04.087Z,55.07
2023-09-23T10:33:04.076Z,57.97
2023-09-23T10:34:04.006Z,56.19
2023-09-23T10:35:04.133Z,54.15
2023-09-23T10:36:04.008Z,53.73
2023-09-23T10:37:04.054Z,55.82
2023-09-23T10:38:04.037Z,55.78
2023-09-23T10:39:04.000Z,58.15
2023-09-23T10:40:04.006Z,58.98
2023-09-23T10:41:04.027Z,53.68
2023-09-23T10:42:04.008Z,55.19
2023-09-23T10:43:03.978Z,53.92
2023-09-23T10:44:04.035Z,55.13
2023-09-23T10:45:03.965Z,53.45
2023-09-23T10:46:04.033Z,53.21
2023-09-23T10:47:03.910Z,57.87
2023-09-23T10:48:04.088Z,54.97
2023-09-23T10:49:03.903Z,52.78
2023-09-23T10:50:04.042Z,53.39
2023-09-23T10:51:03.976Z,53.78
2023-09-23T10:52:03.992Z,52.41
2023-09-23T10:53:03.982Z,54.95
2023-09-23T10:54:03.913Z,55.53
2023-09-23T10:55:03.944Z,55.31
2023-09-23T10:56:03.939Z,55.21
2023-09-23T10:57:03.880Z,54.64
2023-09-23T10:58:03.888Z,55.64
2023-09-23T10:59:03.870Z,53.94
2023-09-23T11:00:03.944Z,54.02
2023-09-23T11:01:03.828Z,56.02
2023-09-23T11:02:03.879Z,56.06
2023-09-23T11:03:03.960Z,54.90
2023-09-23T11:04:03.907Z,53.06
2023-09-23T11:05:03.972Z,54.33
2023-09-23T11:06:03.794Z,57.00
2023-09-23T11:07:03.814Z,52.74
2023-09-23T11:08:03.876Z,54.01
2023-09-23T11:09:03.776Z,55.14
2023-09-23T11:10:03.810Z,55.60
2023-09-23T11:11:03.799Z,55.94
2023-09-23T11:12:03.756Z,53.55
2023-09-23T11:13:03.751Z,52.33
2023-09-23T11:14:03.735Z,54.25
2023-09-23T11:15:03.821Z,55.08
2023-09-23T11:16:03.785Z,51.54
2023-09-23T11:17:03.771Z,49.14
2023-09-23T11:18:03.762Z,51.18
2023-09-23T11:19:03.715Z,53.44
2023-09-23T11:20:03.753Z,51.38
2023-09-23T11:21:03.726Z,52.78
2023-09-23T11:22:03.974Z,52.63
2023-09-23T11:23:05.194Z,53.84
2023-09-23T11:24:03.688Z,52.90
2023-09-23T11:25:03.682Z,52.35
2023-09-23T11:26:03.772Z,52.48
2023-09-23T11:27:03.863Z,52.93
2023-09-23T11:28:03.960Z,53.20
2023-09-23T11:29:03.848Z,55.45
2023-09-23T11:30:03.708Z,51.53
2023-09-23T11:31:03.995Z,59.18
2023-09-23T11:32:03.715Z,51.70
2023-09-23T11:33:03.909Z,53.80
2023-09-23T11:34:03.741Z,56.02
2023-09-23T11:35:03.724Z,49.59
2023-09-23T11:36:03.630Z,51.92
2023-09-23T11:37:03.639Z,51.38
2023-09-23T11:38:03.678Z,51.76
2023-09-23T11:39:03.598Z,54.95
2023-09-23T11:40:03.591Z,54.39
2023-09-23T11:41:03.663Z,51.93
2023-09-23T11:42:03.567Z,53.14
2023-09-23T11:43:04.599Z,53.40
2023-09-23T11:44:03.777Z,51.41
2023-09-23T11:45:04.031Z,50.30
2023-09-23T11:46:03.620Z,50.92
2023-09-23T11:47:03.588Z,52.15
2023-09-23T11:48:03.568Z,51.53
2023-09-23T11:49:03.528Z,49.63
2023-09-23T11:50:03.555Z,53.17
2023-09-23T11:51:03.556Z,53.19
2023-09-23T11:52:03.540Z,51.88
2023-09-23T11:53:03.542Z,52.33
2023-09-23T11:54:03.543Z,56.15
2023-09-23T11:55:03.571Z,52.86
2023-09-23T11:56:03.555Z,54.89
2023-09-23T11:57:03.517Z,48.43
2023-09-23T11:58:03.542Z,49.74
2023-09-23T11:59:08.795Z,50.18
2023-09-23T12:00:05.898Z,53.06
2023-09-23T12:01:03.881Z,52.65
2023-09-23T12:02:03.485Z,51.24
2023-09-23T12:03:03.865Z,51.77
2023-09-23T12:04:04.563Z,54.09
2023-09-23T12:05:03.588Z,52.03
2023-09-23T12:06:03.663Z,54.11
2023-09-23T12:07:03.467Z,51.77
2023-09-23T12:08:03.426Z,51.34
2023-09-23T12:09:03.430Z,51.18
2023-09-23T12:10:03.448Z,52.24
2023-09-23T12:11:03.421Z,55.86
2023-09-23T12:12:03.397Z,55.90
2023-09-23T12:13:05.048Z,52.00
2023-09-23T12:14:03.394Z,51.83
2023-09-23T12:15:03.454Z,52.78
2023-09-23T12:16:03.487Z,54.20
2023-09-23T12:17:03.430Z,55.01
2023-09-23T12:18:03.707Z,52.73
2023-09-23T12:19:06.200Z,52.19
2023-09-23T12:20:04.633Z,51.79
2023-09-23T12:21:03.771Z,50.30
2023-09-23T12:22:03.336Z,51.95
2023-09-23T12:23:03.482Z,53.95
2023-09-23T12:24:03.375Z,54.00
2023-09-23T12:25:03.322Z,52.96
2023-09-23T12:26:03.358Z,49.59
2023-09-23T12:27:03.366Z,53.17
2023-09-23T12:28:03.339Z,61.17
2023-09-23T12:29:03.398Z,54.12
2023-09-23T12:30:03.293Z,53.16
2023-09-23T12:31:03.321Z,52.95
2023-09-23T12:32:03.511Z,54.10
2023-09-23T12:33:03.352Z,52.05
2023-09-23T12:34:04.334Z,54.94
2023-09-23T12:35:03.361Z,50.66
2023-09-23T12:36:03.256Z,52.91
2023-09-23T12:37:03.240Z,52.40
2023-09-23T12:38:03.248Z,53.81
2023-09-23T12:39:03.266Z,53.19
2023-09-23T12:40:03.238Z,51.85
2023-09-23T12:41:03.254Z,52.27
2023-09-23T12:42:03.189Z,51.21
2023-09-23T12:43:03.193Z,52.42
2023-09-23T12:44:03.213Z,53.37
2023-09-23T12:45:06.135Z,57.30
2023-09-23T12:46:04.290Z,51.44
2023-09-23T12:47:03.186Z,55.51
2023-09-23T12:48:03.240Z,50.25
2023-09-23T12:49:03.221Z,52.18
2023-09-23T12:50:03.183Z,50.80
2023-09-23T12:51:03.140Z,52.24
2023-09-23T12:52:03.166Z,54.16
2023-09-23T12:53:03.427Z,54.63
2023-09-23T12:54:03.392Z,49.72
2023-09-23T12:55:03.408Z,50.15
2023-09-23T12:56:03.196Z,55.61
2023-09-23T12:57:03.092Z,57.76
2023-09-23T12:58:03.081Z,54.29
2023-09-23T12:59:03.142Z,53.91
2023-09-23T13:00:03.081Z,53.30
2023-09-23T13:01:03.149Z,54.49
2023-09-23T13:02:03.099Z,53.52
2023-09-23T13:03:03.228Z,53.12
2023-09-23T13:04:03.164Z,55.51